Terminal Aerodrome Forecast
Issued by NWS Cleveland, OH

Home | Current Version | Previous Version | Text Only | Print | Product List | Glossary Off
Versions: 1 2 3 4 5 6 7 8 9 10 11 12 13 14 15 16 17 18

000
FTUS41 KCLE 151856 AAB
TAFCAK
TAF AMD
KCAK 151856Z 1519/1618 18010KT 2SM -SN BKN020 OVC040
      TEMPO 1519/1523 3/4SM -SN VV009
     FM160400 20008KT 3SM -SN BKN010
     FM160700 24007KT P6SM BKN010=

USA.gov is the U.S. government's official web portal to all federal, state and local government web resources and services.